createdAt,value
2019-05-12T00:00:50.017Z,1001.17
2019-05-12T00:01:28.986Z,1001.17
2019-05-12T00:02:28.967Z,1001.18
2019-05-12T00:03:28.947Z,1001.20
2019-05-12T00:04:28.925Z,1001.19
2019-05-12T00:05:28.893Z,1001.20
2019-05-12T00:06:49.881Z,1001.19
2019-05-12T00:07:28.851Z,1001.19
2019-05-12T00:08:28.832Z,1001.18
2019-05-12T00:09:28.810Z,1001.18
2019-05-12T00:10:28.784Z,1001.24
2019-05-12T00:11:28.939Z,1001.20
2019-05-12T00:12:49.738Z,1001.20
2019-05-12T00:13:28.710Z,1001.20
2019-05-12T00:14:28.685Z,1001.25
2019-05-12T00:15:28.666Z,1001.20
2019-05-12T00:16:28.649Z,1001.24
2019-05-12T00:17:28.615Z,1001.23
2019-05-12T00:18:49.593Z,1001.24
2019-05-12T00:19:28.734Z,1001.30
2019-05-12T00:20:28.678Z,1001.26
2019-05-12T00:21:28.544Z,1001.22
2019-05-12T00:22:28.757Z,1001.24
2019-05-12T00:23:31.085Z,1001.26
2019-05-12T00:24:49.460Z,1001.28
2019-05-12T00:25:28.502Z,1001.34
2019-05-12T00:26:28.454Z,1001.33
2019-05-12T00:27:28.512Z,1001.33
2019-05-12T00:28:28.526Z,1001.31
2019-05-12T00:29:28.793Z,1001.35
2019-05-12T00:30:49.316Z,1001.39
2019-05-12T00:31:28.292Z,1001.39
2019-05-12T00:32:28.297Z,1001.40
2019-05-12T00:33:28.411Z,1001.41
2019-05-12T00:34:28.876Z,1001.43
2019-05-12T00:35:28.587Z,1001.43
2019-05-12T00:36:49.205Z,1001.42
2019-05-12T00:37:28.837Z,1001.44
2019-05-12T00:38:28.125Z,1001.43
2019-05-12T00:39:28.099Z,1001.48
2019-05-12T00:40:28.171Z,1001.48
2019-05-12T00:41:28.448Z,1001.48
2019-05-12T00:42:49.029Z,1001.51
2019-05-12T00:43:28.318Z,1001.50
2019-05-12T00:44:28.532Z,1001.56
2019-05-12T00:45:29.165Z,1001.56
2019-05-12T00:46:28.017Z,1001.58
2019-05-12T00:47:28.108Z,1001.59
2019-05-12T00:48:48.890Z,1001.66
2019-05-12T00:49:28.921Z,1001.66
2019-05-12T00:50:28.825Z,1001.68
2019-05-12T00:51:28.862Z,1001.73
2019-05-12T00:52:28.186Z,1001.71
2019-05-12T00:53:37.222Z,1001.73
2019-05-12T00:54:48.746Z,1001.77
2019-05-12T00:55:28.832Z,1001.75
2019-05-12T00:56:28.374Z,1001.76
2019-05-12T00:57:28.676Z,1001.74
2019-05-12T00:58:27.905Z,1001.78
2019-05-12T00:59:28.012Z,1001.75
2019-05-12T01:00:48.602Z,1001.79
2019-05-12T01:01:28.610Z,1001.82
2019-05-12T01:02:28.686Z,1001.82
2019-05-12T01:03:28.057Z,1001.85
2019-05-12T01:04:29.199Z,1001.86
2019-05-12T01:05:29.414Z,1001.86
2019-05-12T01:06:49.053Z,1001.87
2019-05-12T01:07:27.837Z,1001.90
2019-05-12T01:08:27.997Z,1001.92
2019-05-12T01:09:28.175Z,1001.94
2019-05-12T01:10:28.653Z,1001.96
2019-05-12T01:11:28.598Z,1001.95
2019-05-12T01:12:48.602Z,1001.95
2019-05-12T01:13:27.931Z,1001.97
2019-05-12T01:14:27.868Z,1001.98
2019-05-12T01:15:28.730Z,1001.98
2019-05-12T01:16:28.819Z,1002.00
2019-05-12T01:17:28.187Z,1001.99
2019-05-12T01:18:48.174Z,1001.97
2019-05-12T01:19:28.849Z,1001.95
2019-05-12T01:20:28.400Z,1001.95
2019-05-12T01:21:28.763Z,1002.00
2019-05-12T01:22:27.746Z,1002.00
2019-05-12T01:23:28.054Z,1002.01
2019-05-12T01:24:48.379Z,1002.00
2019-05-12T01:25:29.115Z,1002.02
2019-05-12T01:26:28.440Z,1002.06
2019-05-12T01:27:28.726Z,1002.08
2019-05-12T01:28:27.831Z,1002.14
2019-05-12T01:29:28.182Z,1002.11
2019-05-12T01:30:48.033Z,1002.10
2019-05-12T01:31:28.566Z,1002.16
2019-05-12T01:32:28.735Z,1002.18
2019-05-12T01:33:27.685Z,1002.14
2019-05-12T01:34:27.810Z,1002.17
2019-05-12T01:35:28.252Z,1002.15
2019-05-12T01:36:48.317Z,1002.18
2019-05-12T01:37:28.032Z,1002.21
2019-05-12T01:38:28.781Z,1002.24
2019-05-12T01:39:27.717Z,1002.26
2019-05-12T01:40:28.518Z,1002.29
2019-05-12T01:41:28.689Z,1002.33
2019-05-12T01:42:48.401Z,1002.34
2019-05-12T01:43:27.768Z,1002.34
2019-05-12T01:44:28.603Z,1002.36
2019-05-12T01:45:28.883Z,1002.36
2019-05-12T01:46:28.741Z,1002.39
2019-05-12T01:47:28.919Z,1002.38
2019-05-12T01:48:48.373Z,1002.39
2019-05-12T01:49:28.866Z,1002.40
2019-05-12T01:50:28.296Z,1002.42
2019-05-12T01:51:28.399Z,1002.42
2019-05-12T01:52:28.405Z,1002.44
2019-05-12T01:53:28.537Z,1002.44
2019-05-12T01:54:48.317Z,1002.47
2019-05-12T01:55:28.071Z,1002.47
2019-05-12T01:56:28.300Z,1002.49
2019-05-12T01:57:26.238Z,1002.51
2019-05-12T01:58:27.817Z,1002.55
2019-05-12T01:59:26.196Z,1002.54
2019-05-12T02:00:48.282Z,1002.56
2019-05-12T02:01:28.084Z,1002.58
2019-05-12T02:02:28.425Z,1002.52
2019-05-12T02:03:28.221Z,1002.59
2019-05-12T02:04:28.181Z,1002.60
2019-05-12T02:05:27.979Z,1002.63
2019-05-12T02:06:48.581Z,1002.63
2019-05-12T02:07:27.893Z,1002.65
2019-05-12T02:08:27.865Z,1002.63
2019-05-12T02:09:27.915Z,1002.62
2019-05-12T02:10:28.297Z,1002.69
2019-05-12T02:11:25.954Z,1002.73
2019-05-12T02:12:48.902Z,1002.73
2019-05-12T02:13:27.691Z,1002.77
2019-05-12T02:14:27.594Z,1002.84
2019-05-12T02:15:27.829Z,1002.82
2019-05-12T02:16:28.072Z,1002.82
2019-05-12T02:17:28.189Z,1002.81
2019-05-12T02:18:48.896Z,1002.83
2019-05-12T02:19:28.131Z,1002.85
2019-05-12T02:20:25.683Z,1002.85
2019-05-12T02:21:27.792Z,1002.86
2019-05-12T02:22:27.842Z,1002.87
2019-05-12T02:23:28.047Z,1002.86
2019-05-12T02:24:47.865Z,1002.85
2019-05-12T02:25:25.560Z,1002.92
2019-05-12T02:26:25.538Z,1002.92
2019-05-12T02:27:25.515Z,1002.95
2019-05-12T02:28:25.499Z,1002.93
2019-05-12T02:29:25.465Z,1002.96
2019-05-12T02:30:49.938Z,1002.97
2019-05-12T02:31:29.080Z,1002.99
2019-05-12T02:32:35.601Z,1003.02
2019-05-12T02:33:25.377Z,1003.01
2019-05-12T02:34:25.630Z,1003.02
2019-05-12T02:35:25.339Z,1003.04
2019-05-12T02:36:46.304Z,1003.02
2019-05-12T02:37:26.249Z,1003.11
2019-05-12T02:38:25.362Z,1003.13
2019-05-12T02:39:25.226Z,1003.11
2019-05-12T02:40:25.585Z,1003.13
2019-05-12T02:41:25.949Z,1003.16
2019-05-12T02:42:46.669Z,1003.17
2019-05-12T02:43:25.130Z,1003.19
2019-05-12T02:44:25.112Z,1003.16
2019-05-12T02:45:25.746Z,1003.17
2019-05-12T02:46:25.758Z,1003.20
2019-05-12T02:47:25.030Z,1003.20
2019-05-12T02:48:46.010Z,1003.18
2019-05-12T02:49:24.987Z,1003.20
2019-05-12T02:50:24.958Z,1003.18
2019-05-12T02:51:25.166Z,1003.25
2019-05-12T02:52:25.298Z,1003.29
2019-05-12T02:53:25.184Z,1003.25
2019-05-12T02:54:54.677Z,1003.29
2019-05-12T02:55:25.740Z,1003.31
2019-05-12T02:56:25.894Z,1003.29
2019-05-12T02:57:25.709Z,1003.30
2019-05-12T02:58:25.488Z,1003.31
2019-05-12T02:59:25.446Z,1003.29
2019-05-12T03:00:45.865Z,1003.33
2019-05-12T03:01:24.715Z,1003.34
2019-05-12T03:02:24.809Z,1003.38
2019-05-12T03:03:25.281Z,1003.41
2019-05-12T03:04:24.888Z,1003.44
2019-05-12T03:05:24.972Z,1003.45
2019-05-12T03:06:45.574Z,1003.51
2019-05-12T03:07:25.434Z,1003.59
2019-05-12T03:08:25.678Z,1003.59
2019-05-12T03:09:24.610Z,1003.64
2019-05-12T03:10:25.287Z,1003.63
2019-05-12T03:11:24.872Z,1003.68
2019-05-12T03:12:45.435Z,1003.70
2019-05-12T03:13:25.460Z,1003.70
2019-05-12T03:14:25.251Z,1003.68
2019-05-12T03:15:25.212Z,1003.62
2019-05-12T03:16:25.644Z,1003.64
2019-05-12T03:17:25.359Z,1003.62
2019-05-12T03:18:45.303Z,1003.65
2019-05-12T03:19:25.236Z,1003.63
2019-05-12T03:20:24.383Z,1003.64
2019-05-12T03:21:24.676Z,1003.66
2019-05-12T03:22:25.254Z,1003.67
2019-05-12T03:23:24.941Z,1003.71
2019-05-12T03:24:45.149Z,1003.70
2019-05-12T03:25:29.074Z,1003.76
2019-05-12T03:26:24.868Z,1003.77
2019-05-12T03:27:25.607Z,1003.80
2019-05-12T03:28:25.510Z,1003.83
2019-05-12T03:29:25.081Z,1003.83
2019-05-12T03:30:48.237Z,1003.85
2019-05-12T03:31:30.946Z,1003.88
2019-05-12T03:32:27.446Z,1003.88
2019-05-12T03:33:33.545Z,1003.88
2019-05-12T03:34:29.010Z,1003.89
2019-05-12T03:35:32.724Z,1003.92
2019-05-12T03:36:50.652Z,1003.93
2019-05-12T03:37:30.894Z,1003.96
2019-05-12T03:38:24.808Z,1003.95
2019-05-12T03:39:25.015Z,1004.00
2019-05-12T03:40:24.958Z,1004.01
2019-05-12T03:41:25.068Z,1004.04
2019-05-12T03:42:44.733Z,1004.02
2019-05-12T03:43:24.390Z,1004.03
2019-05-12T03:44:25.214Z,1004.07
2019-05-12T03:45:25.175Z,1004.11
2019-05-12T03:46:24.800Z,1004.16
2019-05-12T03:47:25.134Z,1004.19
2019-05-12T03:48:45.545Z,1004.22
2019-05-12T03:49:24.528Z,1004.27
2019-05-12T03:50:24.479Z,1004.27
2019-05-12T03:51:25.130Z,1004.30
2019-05-12T03:52:24.391Z,1004.31
2019-05-12T03:53:24.646Z,1004.38
2019-05-12T03:54:45.191Z,1004.36
2019-05-12T03:55:34.362Z,1004.33
2019-05-12T03:56:25.988Z,1004.36
2019-05-12T03:57:25.352Z,1004.36
2019-05-12T03:58:25.539Z,1004.38
2019-05-12T03:59:25.542Z,1004.43
2019-05-12T04:00:44.858Z,1004.46
2019-05-12T04:01:25.485Z,1004.42
2019-05-12T04:02:25.065Z,1004.44
2019-05-12T04:03:24.747Z,1004.46
2019-05-12T04:04:24.398Z,1004.49
2019-05-12T04:05:24.316Z,1004.53
2019-05-12T04:06:45.300Z,1004.55
2019-05-12T04:07:24.332Z,1004.56
2019-05-12T04:08:24.604Z,1004.60
2019-05-12T04:09:24.598Z,1004.63
2019-05-12T04:10:24.769Z,1004.62
2019-05-12T04:11:24.948Z,1004.67
2019-05-12T04:12:44.988Z,1004.68
2019-05-12T04:13:26.180Z,1004.73
2019-05-12T04:14:25.280Z,1004.72
2019-05-12T04:15:25.602Z,1004.76
2019-05-12T04:16:24.702Z,1004.75
2019-05-12T04:17:24.340Z,1004.79
2019-05-12T04:18:45.084Z,1004.85
2019-05-12T04:19:24.958Z,1004.88
2019-05-12T04:20:25.442Z,1004.90
2019-05-12T04:21:24.368Z,1004.89
2019-05-12T04:22:24.895Z,1004.90
2019-05-12T04:23:24.778Z,1004.94
2019-05-12T04:24:44.534Z,1004.97
2019-05-12T04:25:24.971Z,1004.99
2019-05-12T04:26:25.358Z,1004.96
2019-05-12T04:27:25.203Z,1004.97
2019-05-12T04:28:24.597Z,1004.97
2019-05-12T04:29:25.028Z,1005.01
2019-05-12T04:30:44.511Z,1005.04
2019-05-12T04:31:24.872Z,1005.10
2019-05-12T04:32:24.942Z,1005.16
2019-05-12T04:33:25.407Z,1005.17
2019-05-12T04:34:25.082Z,1005.19
2019-05-12T04:35:25.197Z,1005.19
2019-05-12T04:36:44.991Z,1005.22
2019-05-12T04:37:24.917Z,1005.24
2019-05-12T04:38:24.876Z,1005.22
2019-05-12T04:39:25.102Z,1005.31
2019-05-12T04:40:24.752Z,1005.30
2019-05-12T04:41:25.630Z,1005.34
2019-05-12T04:42:45.223Z,1005.35
2019-05-12T04:43:25.349Z,1005.35
2019-05-12T04:44:25.090Z,1005.36
2019-05-12T04:45:25.241Z,1005.36
2019-05-12T04:46:25.130Z,1005.40
2019-05-12T04:47:25.072Z,1005.36
2019-05-12T04:48:45.347Z,1005.41
2019-05-12T04:49:24.981Z,1005.41
2019-05-12T04:50:24.512Z,1005.39
2019-05-12T04:51:24.957Z,1005.45
2019-05-12T04:52:24.868Z,1005.45
2019-05-12T04:53:25.089Z,1005.49
2019-05-12T04:54:44.450Z,1005.46
2019-05-12T04:55:25.325Z,1005.51
2019-05-12T04:56:24.862Z,1005.50
2019-05-12T04:57:25.195Z,1005.52
2019-05-12T04:58:25.290Z,1005.51
2019-05-12T04:59:24.604Z,1005.54
2019-05-12T05:00:44.779Z,1005.57
2019-05-12T05:01:25.032Z,1005.64
2019-05-12T05:02:25.009Z,1005.68
2019-05-12T05:03:24.561Z,1005.68
2019-05-12T05:04:24.451Z,1005.72
2019-05-12T05:05:24.652Z,1005.69
2019-05-12T05:06:44.835Z,1005.72
2019-05-12T05:07:24.416Z,1005.74
2019-05-12T05:08:24.252Z,1005.74
2019-05-12T05:09:24.397Z,1005.76
2019-05-12T05:10:24.726Z,1005.75
2019-05-12T05:11:21.673Z,1005.76
2019-05-12T05:12:44.965Z,1005.75
2019-05-12T05:13:24.285Z,1005.77
2019-05-12T05:14:24.545Z,1005.79
2019-05-12T05:15:21.590Z,1005.86
2019-05-12T05:16:24.627Z,1005.85
2019-05-12T05:17:24.201Z,1005.89
2019-05-12T05:18:43.919Z,1005.94
2019-05-12T05:19:21.500Z,1005.95
2019-05-12T05:20:23.802Z,1005.95
2019-05-12T05:21:23.421Z,1006.00
2019-05-12T05:22:21.427Z,1006.00
2019-05-12T05:23:21.401Z,1006.05
2019-05-12T05:24:44.363Z,1006.07
2019-05-12T05:25:23.508Z,1006.09
2019-05-12T05:26:27.641Z,1006.06
2019-05-12T05:27:21.308Z,1006.10
2019-05-12T05:28:23.513Z,1006.15
2019-05-12T05:29:21.295Z,1006.17
2019-05-12T05:30:44.077Z,1006.16
2019-05-12T05:31:21.225Z,1006.18
2019-05-12T05:32:23.178Z,1006.21
2019-05-12T05:33:23.622Z,1006.22
2019-05-12T05:34:23.418Z,1006.23
2019-05-12T05:35:21.136Z,1006.27
2019-05-12T05:36:43.344Z,1006.26
2019-05-12T05:37:21.087Z,1006.25
2019-05-12T05:38:21.062Z,1006.27
2019-05-12T05:39:21.041Z,1006.29
2019-05-12T05:40:28.383Z,1006.29
2019-05-12T05:41:20.992Z,1006.38
2019-05-12T05:42:43.963Z,1006.40
2019-05-12T05:43:20.955Z,1006.39
2019-05-12T05:44:20.932Z,1006.44
2019-05-12T05:45:24.189Z,1006.44
2019-05-12T05:46:20.885Z,1006.47
2019-05-12T05:47:25.653Z,1006.51
2019-05-12T05:48:43.927Z,1006.51
2019-05-12T05:49:20.820Z,1006.52
2019-05-12T05:50:24.858Z,1006.52
2019-05-12T05:51:20.778Z,1006.54
2019-05-12T05:52:26.552Z,1006.52
2019-05-12T05:53:20.723Z,1006.54
2019-05-12T05:54:43.881Z,1006.57
2019-05-12T05:55:20.694Z,1006.62
2019-05-12T05:56:20.665Z,1006.61
2019-05-12T05:57:25.837Z,1006.66
2019-05-12T05:58:20.641Z,1006.64
2019-05-12T05:59:21.924Z,1006.69
2019-05-12T06:00:43.450Z,1006.69
2019-05-12T06:01:20.555Z,1006.70
2019-05-12T06:02:25.391Z,1006.65
2019-05-12T06:03:27.734Z,1006.65
2019-05-12T06:04:20.495Z,1006.73
2019-05-12T06:05:26.455Z,1006.74
2019-05-12T06:06:42.708Z,1006.73
2019-05-12T06:07:23.830Z,1006.73
2019-05-12T06:08:21.000Z,1006.73
2019-05-12T06:09:20.378Z,1006.73
2019-05-12T06:10:20.365Z,1006.78
2019-05-12T06:11:23.813Z,1006.75
2019-05-12T06:12:48.644Z,1006.77
2019-05-12T06:13:21.177Z,1006.82
2019-05-12T06:14:20.276Z,1006.80
2019-05-12T06:15:20.257Z,1006.81
2019-05-12T06:16:22.054Z,1006.83
2019-05-12T06:17:20.215Z,1006.84
2019-05-12T06:18:43.740Z,1006.86
2019-05-12T06:19:23.148Z,1006.90
2019-05-12T06:20:20.148Z,1006.91
2019-05-12T06:21:20.124Z,1006.90
2019-05-12T06:22:20.102Z,1006.94
2019-05-12T06:23:20.117Z,1006.96
2019-05-12T06:24:41.086Z,1006.96
2019-05-12T06:25:20.045Z,1006.99
2019-05-12T06:26:21.125Z,1006.99
2019-05-12T06:27:21.035Z,1006.98
2019-05-12T06:28:19.983Z,1007.02
2019-05-12T06:29:21.907Z,1007.07
2019-05-12T06:30:47.095Z,1007.07
2019-05-12T06:31:28.269Z,1007.11
2019-05-12T06:32:19.891Z,1007.14
2019-05-12T06:33:24.791Z,1007.17
2019-05-12T06:34:21.064Z,1007.14
2019-05-12T06:35:19.835Z,1007.13
2019-05-12T06:36:40.809Z,1007.16
2019-05-12T06:37:19.797Z,1007.16
2019-05-12T06:38:19.770Z,1007.14
2019-05-12T06:39:20.868Z,1007.16
2019-05-12T06:40:19.730Z,1007.15
2019-05-12T06:41:21.022Z,1007.16
2019-05-12T06:42:40.694Z,1007.17
2019-05-12T06:43:19.662Z,1007.13
2019-05-12T06:44:19.833Z,1007.14
2019-05-12T06:45:19.624Z,1007.19
2019-05-12T06:46:21.160Z,1007.17
2019-05-12T06:47:19.577Z,1007.19
2019-05-12T06:48:42.361Z,1007.23
2019-05-12T06:49:19.541Z,1007.24
2019-05-12T06:50:19.519Z,1007.23
2019-05-12T06:51:25.251Z,1007.23
2019-05-12T06:52:19.477Z,1007.25
2019-05-12T06:53:25.464Z,1007.29
2019-05-12T06:54:44.615Z,1007.25
2019-05-12T06:55:19.423Z,1007.33
2019-05-12T06:56:19.957Z,1007.32
2019-05-12T06:57:25.339Z,1007.33
2019-05-12T06:58:25.950Z,1007.33
2019-05-12T06:59:19.359Z,1007.36
2019-05-12T07:00:40.314Z,1007.36
2019-05-12T07:01:19.677Z,1007.35
2019-05-12T07:02:19.286Z,1007.37
2019-05-12T07:03:24.395Z,1007.40
2019-05-12T07:04:21.344Z,1007.41
2019-05-12T07:05:19.209Z,1007.44
2019-05-12T07:06:40.190Z,1007.45
2019-05-12T07:07:19.165Z,1007.38
2019-05-12T07:08:26.292Z,1007.43
2019-05-12T07:09:25.112Z,1007.50
2019-05-12T07:10:35.622Z,1007.53
2019-05-12T07:11:19.091Z,1007.54
2019-05-12T07:12:56.000Z,1007.54
2019-05-12T07:13:23.034Z,1007.55
2019-05-12T07:14:22.854Z,1007.58
2019-05-12T07:15:19.041Z,1007.57
2019-05-12T07:16:22.867Z,1007.59
2019-05-12T07:17:18.994Z,1007.62
2019-05-12T07:18:39.953Z,1007.66
2019-05-12T07:19:22.851Z,1007.66
2019-05-12T07:20:18.906Z,1007.70
2019-05-12T07:21:21.050Z,1007.71
2019-05-12T07:22:22.522Z,1007.70
2019-05-12T07:23:19.851Z,1007.72
2019-05-12T07:24:41.094Z,1007.68
2019-05-12T07:25:22.894Z,1007.75
2019-05-12T07:26:19.627Z,1007.75
2019-05-12T07:27:32.234Z,1007.72
2019-05-12T07:28:18.743Z,1007.72
2019-05-12T07:29:18.737Z,1007.69
2019-05-12T07:30:39.705Z,1007.74
2019-05-12T07:31:18.678Z,1007.79
2019-05-12T07:32:21.700Z,1007.76
2019-05-12T07:33:18.635Z,1007.82
2019-05-12T07:34:18.615Z,1007.82
2019-05-12T07:35:18.596Z,1007.87
2019-05-12T07:36:39.585Z,1007.84
2019-05-12T07:37:18.552Z,1007.89
2019-05-12T07:38:21.459Z,1007.88
2019-05-12T07:39:18.552Z,1007.91
2019-05-12T07:40:19.056Z,1007.93
2019-05-12T07:41:18.475Z,1007.94
2019-05-12T07:42:39.758Z,1007.99
2019-05-12T07:43:20.511Z,1008.02
2019-05-12T07:44:18.415Z,1008.03
2019-05-12T07:45:22.308Z,1008.03
2019-05-12T07:46:18.372Z,1008.04
2019-05-12T07:47:19.277Z,1008.07
2019-05-12T07:48:40.415Z,1008.09
2019-05-12T07:49:22.036Z,1008.03
2019-05-12T07:50:20.656Z,1008.10
2019-05-12T07:51:18.269Z,1008.13
2019-05-12T07:52:18.244Z,1008.16
2019-05-12T07:53:18.228Z,1008.12
2019-05-12T07:54:39.545Z,1008.16
2019-05-12T07:55:18.215Z,1008.14
2019-05-12T07:56:22.914Z,1008.15
2019-05-12T07:57:18.150Z,1008.17
2019-05-12T07:58:19.390Z,1008.14
2019-05-12T07:59:18.101Z,1008.16
2019-05-12T08:00:39.078Z,1008.17
2019-05-12T08:01:18.072Z,1008.23
2019-05-12T08:02:23.256Z,1008.25
2019-05-12T08:03:21.296Z,1008.32
2019-05-12T08:04:18.018Z,1008.36
2019-05-12T08:05:20.218Z,1008.40
2019-05-12T08:06:41.821Z,1008.42
2019-05-12T08:07:19.758Z,1008.44
2019-05-12T08:08:17.928Z,1008.48
2019-05-12T08:09:17.902Z,1008.45
2019-05-12T08:10:19.952Z,1008.42
2019-05-12T08:11:17.864Z,1008.45
2019-05-12T08:12:38.852Z,1008.43
2019-05-12T08:13:18.729Z,1008.42
2019-05-12T08:14:25.828Z,1008.45
2019-05-12T08:15:17.789Z,1008.45
2019-05-12T08:16:19.485Z,1008.44
2019-05-12T08:17:19.572Z,1008.49
2019-05-12T08:18:40.923Z,1008.52
2019-05-12T08:19:23.744Z,1008.52
2019-05-12T08:20:17.690Z,1008.51
2019-05-12T08:21:17.677Z,1008.55
2019-05-12T08:22:18.865Z,1008.55
2019-05-12T08:23:17.626Z,1008.56
2019-05-12T08:24:42.986Z,1008.54
2019-05-12T08:25:18.823Z,1008.52
2019-05-12T08:26:18.621Z,1008.53
2019-05-12T08:27:17.552Z,1008.56
2019-05-12T08:28:19.246Z,1008.65
2019-05-12T08:29:21.438Z,1008.59
2019-05-12T08:30:47.468Z,1008.59
2019-05-12T08:31:17.476Z,1008.55
2019-05-12T08:32:20.034Z,1008.64
2019-05-12T08:33:17.443Z,1008.59
2019-05-12T08:34:17.423Z,1008.61
2019-05-12T08:35:25.437Z,1008.61
2019-05-12T08:36:38.378Z,1008.66
2019-05-12T08:37:17.366Z,1008.65
2019-05-12T08:38:17.349Z,1008.73
2019-05-12T08:39:22.616Z,1008.71
2019-05-12T08:40:17.307Z,1008.71
2019-05-12T08:41:17.299Z,1008.71
2019-05-12T08:42:38.288Z,1008.73
2019-05-12T08:43:17.251Z,1008.68
2019-05-12T08:44:17.683Z,1008.72
2019-05-12T08:45:25.702Z,1008.76
2019-05-12T08:46:17.193Z,1008.79
2019-05-12T08:47:17.170Z,1008.83
2019-05-12T08:48:38.167Z,1008.84
2019-05-12T08:49:17.150Z,1008.89
2019-05-12T08:50:17.123Z,1008.88
2019-05-12T08:51:20.070Z,1008.88
2019-05-12T08:52:17.085Z,1008.92
2019-05-12T08:53:20.695Z,1008.92
2019-05-12T08:54:39.674Z,1008.94
2019-05-12T08:55:17.078Z,1008.90
2019-05-12T08:56:19.317Z,1008.90
2019-05-12T08:57:16.989Z,1008.92
2019-05-12T08:58:30.307Z,1008.95
2019-05-12T08:59:18.450Z,1008.97
2019-05-12T09:00:39.535Z,1008.98
2019-05-12T09:01:20.468Z,1009.00
2019-05-12T09:02:16.916Z,1009.07
2019-05-12T09:03:20.389Z,1009.10
2019-05-12T09:04:18.379Z,1009.11
2019-05-12T09:05:16.840Z,1009.13
2019-05-12T09:06:37.823Z,1009.18
2019-05-12T09:07:16.906Z,1009.14
2019-05-12T09:08:16.782Z,1009.16
2019-05-12T09:09:16.765Z,1009.18
2019-05-12T09:10:16.743Z,1009.18
2019-05-12T09:11:16.724Z,1009.17
2019-05-12T09:12:37.705Z,1009.16
2019-05-12T09:13:16.695Z,1009.19
2019-05-12T09:14:16.657Z,1009.21
2019-05-12T09:15:16.642Z,1009.21
2019-05-12T09:16:16.625Z,1009.27
2019-05-12T09:17:16.618Z,1009.33
2019-05-12T09:18:39.391Z,1009.32
2019-05-12T09:19:23.556Z,1009.34
2019-05-12T09:20:16.555Z,1009.36
2019-05-12T09:21:16.539Z,1009.28
2019-05-12T09:22:20.697Z,1009.27
2019-05-12T09:23:16.500Z,1009.24
2019-05-12T09:24:37.483Z,1009.30
2019-05-12T09:25:16.462Z,1009.31
2019-05-12T09:26:18.565Z,1009.27
2019-05-12T09:27:16.426Z,1009.27
2019-05-12T09:28:16.407Z,1009.28
2019-05-12T09:29:16.410Z,1009.29
2019-05-12T09:30:39.968Z,1009.31
2019-05-12T09:31:19.583Z,1009.32
2019-05-12T09:32:16.341Z,1009.33
2019-05-12T09:33:16.459Z,1009.33
2019-05-12T09:34:16.636Z,1009.32
2019-05-12T09:35:16.284Z,1009.29
2019-05-12T09:36:37.298Z,1009.27
2019-05-12T09:37:16.268Z,1009.29
2019-05-12T09:38:21.295Z,1009.27
2019-05-12T09:39:16.217Z,1009.31
2019-05-12T09:40:20.603Z,1009.33
2019-05-12T09:41:16.189Z,1009.28
2019-05-12T09:42:37.180Z,1009.31
2019-05-12T09:43:16.147Z,1009.45
2019-05-12T09:44:20.281Z,1009.37
2019-05-12T09:45:16.124Z,1009.34
2019-05-12T09:46:16.100Z,1009.36
2019-05-12T09:47:23.018Z,1009.39
2019-05-12T09:48:39.188Z,1009.46
2019-05-12T09:49:16.051Z,1009.40
2019-05-12T09:50:20.112Z,1009.43
2019-05-12T09:51:17.278Z,1009.45
2019-05-12T09:52:22.715Z,1009.46
2019-05-12T09:53:15.991Z,1009.46
2019-05-12T09:54:40.901Z,1009.39
2019-05-12T09:55:15.963Z,1009.47
2019-05-12T09:56:15.944Z,1009.42
2019-05-12T09:57:15.922Z,1009.43
2019-05-12T09:58:22.927Z,1009.34
2019-05-12T09:59:21.491Z,1009.38
2019-05-12T10:00:37.784Z,1009.39
2019-05-12T10:01:15.921Z,1009.39
2019-05-12T10:02:20.595Z,1009.41
2019-05-12T10:03:15.832Z,1009.41
2019-05-12T10:04:19.473Z,1009.42
2019-05-12T10:05:15.796Z,1009.43
2019-05-12T10:06:36.791Z,1009.43
2019-05-12T10:07:15.819Z,1009.40
2019-05-12T10:08:15.750Z,1009.40
2019-05-12T10:09:19.921Z,1009.38
2019-05-12T10:10:15.727Z,1009.39
2019-05-12T10:11:19.489Z,1009.39
2019-05-12T10:12:45.031Z,1009.35
2019-05-12T10:13:20.224Z,1009.36
2019-05-12T10:14:15.702Z,1009.38
2019-05-12T10:15:18.626Z,1009.37
2019-05-12T10:16:15.650Z,1009.37
2019-05-12T10:17:20.333Z,1009.47
2019-05-12T10:18:36.615Z,1009.40
2019-05-12T10:19:15.599Z,1009.35
2019-05-12T10:20:15.580Z,1009.39
2019-05-12T10:21:17.494Z,1009.39
2019-05-12T10:22:15.551Z,1009.38
2019-05-12T10:23:18.889Z,1009.46
2019-05-12T10:24:41.395Z,1009.44
2019-05-12T10:25:15.506Z,1009.41
2019-05-12T10:26:15.490Z,1009.41
2019-05-12T10:27:15.481Z,1009.42
2019-05-12T10:28:16.314Z,1009.47
2019-05-12T10:29:20.412Z,1009.44
2019-05-12T10:30:36.461Z,1009.41
2019-05-12T10:31:18.457Z,1009.44
2019-05-12T10:32:15.413Z,1009.45
2019-05-12T10:33:15.391Z,1009.48
2019-05-12T10:34:15.379Z,1009.50
2019-05-12T10:35:21.064Z,1009.52
2019-05-12T10:36:39.050Z,1009.54
2019-05-12T10:37:19.260Z,1009.51
2019-05-12T10:38:15.326Z,1009.53
2019-05-12T10:39:15.319Z,1009.58
2019-05-12T10:40:15.297Z,1009.59
2019-05-12T10:41:15.297Z,1009.57
2019-05-12T10:42:39.889Z,1009.59
2019-05-12T10:43:15.271Z,1009.56
2019-05-12T10:44:15.255Z,1009.52
2019-05-12T10:45:16.939Z,1009.58
2019-05-12T10:46:18.503Z,1009.50
2019-05-12T10:47:15.223Z,1009.55
2019-05-12T10:48:36.210Z,1009.58
2019-05-12T10:49:15.197Z,1009.56
2019-05-12T10:50:15.212Z,1009.59
2019-05-12T10:51:15.179Z,1009.73
2019-05-12T10:52:15.154Z,1009.69
2019-05-12T10:53:15.942Z,1009.71
2019-05-12T10:54:36.139Z,1009.74
2019-05-12T10:55:15.125Z,1009.69
2019-05-12T10:56:15.114Z,1009.70
2019-05-12T10:57:15.106Z,1009.69
2019-05-12T10:58:15.089Z,1009.68
2019-05-12T10:59:29.144Z,1009.65
2019-05-12T11:00:36.065Z,1009.75
2019-05-12T11:01:15.051Z,1009.63
2019-05-12T11:02:15.076Z,1009.67
2019-05-12T11:03:15.641Z,1009.67
2019-05-12T11:04:15.024Z,1009.73
2019-05-12T11:05:21.097Z,1009.70
2019-05-12T11:06:39.700Z,1009.75
2019-05-12T11:07:14.994Z,1009.79
2019-05-12T11:08:14.986Z,1009.80
2019-05-12T11:09:14.971Z,1009.77
2019-05-12T11:10:19.668Z,1009.83
2019-05-12T11:11:15.132Z,1009.70
2019-05-12T11:12:35.944Z,1009.72
2019-05-12T11:13:17.580Z,1009.71
2019-05-12T11:14:14.922Z,1009.78
2019-05-12T11:15:14.919Z,1009.74
2019-05-12T11:16:16.920Z,1009.70
2019-05-12T11:17:14.897Z,1009.71
2019-05-12T11:18:35.893Z,1009.68
2019-05-12T11:19:14.880Z,1009.75
2019-05-12T11:20:14.884Z,1009.74
2019-05-12T11:21:15.484Z,1009.68
2019-05-12T11:22:14.855Z,1009.67
2019-05-12T11:23:14.848Z,1009.80
2019-05-12T11:24:35.870Z,1009.71
2019-05-12T11:25:14.835Z,1009.70
2019-05-12T11:26:14.826Z,1009.72
2019-05-12T11:27:14.817Z,1009.72
2019-05-12T11:28:14.813Z,1009.70
2019-05-12T11:29:14.808Z,1009.73
2019-05-12T11:30:35.806Z,1009.73
2019-05-12T11:31:14.790Z,1009.73
2019-05-12T11:32:17.514Z,1009.72
2019-05-12T11:33:14.772Z,1009.79
2019-05-12T11:34:14.771Z,1009.73
2019-05-12T11:35:14.792Z,1009.80
2019-05-12T11:36:35.765Z,1009.80
2019-05-12T11:37:14.745Z,1009.83
2019-05-12T11:38:14.742Z,1009.91
2019-05-12T11:39:14.736Z,1009.89
2019-05-12T11:40:14.750Z,1009.87
2019-05-12T11:41:16.207Z,1009.94
2019-05-12T11:42:35.803Z,1009.89
2019-05-12T11:43:14.717Z,1009.94
2019-05-12T11:44:14.707Z,1009.92
2019-05-12T11:45:14.701Z,1009.88
2019-05-12T11:46:14.693Z,1009.87
2019-05-12T11:47:23.930Z,1009.91
2019-05-12T11:48:40.368Z,1009.92
2019-05-12T11:49:14.683Z,1009.99
2019-05-12T11:50:14.688Z,1009.97
2019-05-12T11:51:14.669Z,1009.94
2019-05-12T11:52:18.929Z,1009.98
2019-05-12T11:53:14.659Z,1009.96
2019-05-12T11:54:35.659Z,1010.03
2019-05-12T11:55:14.643Z,1010.06
2019-05-12T11:56:14.636Z,1010.03
2019-05-12T11:57:14.630Z,1009.97
2019-05-12T11:58:14.635Z,1009.96
2019-05-12T11:59:14.624Z,1009.96
2019-05-12T12:00:35.621Z,1010.07
2019-05-12T12:01:14.614Z,1009.93
2019-05-12T12:02:14.630Z,1010.04
2019-05-12T12:03:17.865Z,1010.04
2019-05-12T12:04:14.597Z,1010.11
2019-05-12T12:05:14.588Z,1010.11